createdAt,value
2023-03-10T00:02:04.209Z,97972.31
2023-03-10T00:07:05.569Z,97988.09
2023-03-10T00:12:07.322Z,97985.63
2023-03-10T00:17:08.694Z,97973.72
2023-03-10T00:22:11.141Z,97973.19
2023-03-10T00:27:12.461Z,97956.75
2023-03-10T00:32:13.856Z,97950.91
2023-03-10T00:37:15.990Z,97949.59
2023-03-10T00:42:17.330Z,97950.66
2023-03-10T00:47:18.684Z,97943.81
2023-03-10T00:52:20.075Z,97937.75
2023-03-10T00:57:21.417Z,97931.78
2023-03-10T01:02:22.759Z,97941.00
2023-03-10T01:07:24.087Z,97920.75
2023-03-10T01:12:25.443Z,97919.38
2023-03-10T01:17:26.824Z,97903.31
2023-03-10T01:22:28.216Z,97894.91
2023-03-10T01:27:29.527Z,97891.22
2023-03-10T01:32:30.970Z,97874.78
2023-03-10T01:37:32.423Z,97879.13
2023-03-10T01:42:34.086Z,97879.84
2023-03-10T01:47:36.563Z,97869.97
2023-03-10T01:52:37.996Z,97865.88
2023-03-10T01:57:46.283Z,97843.81
2023-03-10T02:02:56.824Z,97838.69
2023-03-10T02:07:59.530Z,97831.34
2023-03-10T02:13:00.910Z,97824.84
2023-03-10T02:18:05.785Z,97823.94
2023-03-10T02:23:10.191Z,97830.63
2023-03-10T02:28:11.770Z,97815.63
2023-03-10T02:33:31.838Z,97815.78
2023-03-10T02:38:33.278Z,97809.63
2023-03-10T02:43:34.742Z,97814.88
2023-03-10T02:48:38.917Z,97798.31
2023-03-10T02:53:40.338Z,97801.59
2023-03-10T02:58:41.997Z,97797.09
2023-03-10T03:03:43.437Z,97806.34
2023-03-10T03:08:44.874Z,97806.44
2023-03-10T03:13:46.248Z,97797.47
2023-03-10T03:18:47.615Z,97788.13
2023-03-10T03:23:49.033Z,97798.97
2023-03-10T03:28:52.044Z,97803.22
2023-03-10T03:33:53.544Z,97795.81
2023-03-10T03:38:54.919Z,97787.81
2023-03-10T03:43:56.281Z,97793.19
2023-03-10T03:48:57.650Z,97782.53
2023-03-10T03:53:59.003Z,97790.91
2023-03-10T03:59:00.394Z,97798.88
2023-03-10T04:04:01.848Z,97809.47
2023-03-10T04:09:03.932Z,97798.47
2023-03-10T04:14:05.321Z,97792.56
2023-03-10T04:19:07.671Z,97797.38
2023-03-10T04:24:09.683Z,97792.63
2023-03-10T04:29:11.110Z,97796.63
2023-03-10T04:34:12.479Z,97787.25
2023-03-10T04:39:14.939Z,97803.38
2023-03-10T04:44:29.856Z,97807.53
2023-03-10T04:49:32.133Z,97788.53
2023-03-10T04:54:33.508Z,97800.47
2023-03-10T04:59:35.234Z,97783.72
2023-03-10T05:04:36.698Z,97770.16
2023-03-10T05:09:38.431Z,97771.47
2023-03-10T05:14:39.811Z,97769.59
2023-03-10T05:19:41.206Z,97763.16
2023-03-10T05:24:42.969Z,97768.28
2023-03-10T05:29:44.533Z,97753.84
2023-03-10T05:34:45.885Z,97744.59
2023-03-10T05:39:47.402Z,97744.47
2023-03-10T05:44:48.734Z,97754.13
2023-03-10T05:49:50.091Z,97749.47
2023-03-10T05:54:51.653Z,97750.06
2023-03-10T05:59:53.140Z,97743.78
2023-03-10T06:04:54.510Z,97739.47
2023-03-10T06:09:55.894Z,97734.44
2023-03-10T06:14:57.369Z,97751.38
2023-03-10T06:19:58.861Z,97750.25
2023-03-10T06:25:00.377Z,97747.78
2023-03-10T06:30:02.816Z,97751.06
2023-03-10T06:35:04.679Z,97748.97
2023-03-10T06:40:08.187Z,97733.78
2023-03-10T06:45:13.506Z,97736.47
2023-03-10T06:50:14.960Z,97741.22
2023-03-10T06:55:16.947Z,97742.81
2023-03-10T07:00:19.355Z,97740.97
2023-03-10T07:05:23.012Z,97745.84
2023-03-10T07:10:24.459Z,97741.28
2023-03-10T07:15:26.590Z,97745.44
2023-03-10T07:20:28.033Z,97743.97
2023-03-10T07:25:29.388Z,97742.41
2023-03-10T07:30:31.429Z,97730.50
2023-03-10T07:35:35.430Z,97723.63
2023-03-10T07:40:40.166Z,97711.63
2023-03-10T07:45:41.560Z,97717.31
2023-03-10T07:50:42.915Z,97719.03
2023-03-10T07:55:44.261Z,97723.59
2023-03-10T08:00:45.712Z,97717.44
2023-03-10T08:05:47.399Z,97717.66
2023-03-10T08:10:48.769Z,97721.34
2023-03-10T08:15:50.135Z,97721.63
2023-03-10T08:20:51.726Z,97734.03
2023-03-10T08:25:53.069Z,97727.56
2023-03-10T08:31:04.309Z,97742.28
2023-03-10T08:36:11.011Z,97741.13
2023-03-10T08:41:22.900Z,97745.63
2023-03-10T08:46:26.801Z,97738.97
2023-03-10T08:51:28.915Z,97741.00
2023-03-10T08:56:30.776Z,97749.81
2023-03-10T09:01:34.899Z,97742.41
2023-03-10T09:06:36.822Z,97758.38
2023-03-10T09:11:39.939Z,97758.50
2023-03-10T09:16:41.370Z,97766.16
2023-03-10T09:21:42.894Z,97766.06
2023-03-10T09:26:44.962Z,97765.16
2023-03-10T09:31:48.239Z,97780.75
2023-03-10T09:36:49.746Z,97783.09
2023-03-10T09:42:09.876Z,97779.97
2023-03-10T09:47:46.259Z,97784.94
2023-03-10T09:52:57.213Z,97790.03
2023-03-10T09:57:58.926Z,97789.91
2023-03-10T10:03:20.566Z,97789.13
2023-03-10T10:08:29.391Z,97780.13
2023-03-10T10:13:30.879Z,97776.94
2023-03-10T10:18:42.455Z,97761.50
2023-03-10T10:23:47.770Z,97769.91
2023-03-10T10:28:58.231Z,97774.72
2023-03-10T10:34:04.989Z,97771.19
2023-03-10T10:39:27.900Z,97789.22
2023-03-10T10:44:30.180Z,97789.00
2023-03-10T10:49:36.429Z,97782.31
2023-03-10T10:54:51.840Z,97775.09
2023-03-10T10:59:53.235Z,97788.72
2023-03-10T11:04:54.646Z,97782.31
2023-03-10T11:09:57.670Z,97782.25
2023-03-10T11:15:22.117Z,97766.06
2023-03-10T11:20:45.206Z,97764.53
2023-03-10T11:26:24.053Z,97776.06
2023-03-10T11:31:46.946Z,97768.03
2023-03-10T11:36:58.141Z,97769.19
2023-03-10T11:42:06.851Z,97759.22
2023-03-10T11:47:42.109Z,97753.63
2023-03-10T11:52:44.863Z,97753.59
2023-03-10T11:57:50.393Z,97751.09
2023-03-10T12:03:08.223Z,97745.69
2023-03-10T12:08:10.786Z,97744.94
2023-03-10T12:13:25.264Z,97731.53
2023-03-10T12:18:28.064Z,97732.38
2023-03-10T12:23:38.731Z,97743.88
2023-03-10T12:28:40.329Z,97732.94
2023-03-10T12:33:44.793Z,97725.03
2023-03-10T12:39:25.362Z,97715.34
2023-03-10T12:44:49.412Z,97707.38
2023-03-10T12:50:12.856Z,97712.00
2023-03-10T12:55:25.468Z,97701.41
2023-03-10T13:00:33.122Z,97690.78
2023-03-10T13:05:39.913Z,97704.66
2023-03-10T13:10:41.453Z,97702.25
2023-03-10T13:15:43.012Z,97701.41
2023-03-10T13:20:45.441Z,97705.91
2023-03-10T13:25:58.803Z,97704.16
2023-03-10T13:31:18.236Z,97691.13
2023-03-10T13:36:31.424Z,97690.66
2023-03-10T13:41:37.432Z,97694.72
2023-03-10T13:46:38.869Z,97692.03
2023-03-10T13:51:40.369Z,97693.53
2023-03-10T13:56:43.330Z,97703.31
2023-03-10T14:01:53.769Z,97700.84
2023-03-10T14:07:10.887Z,97691.75
2023-03-10T14:12:13.476Z,97675.16
2023-03-10T14:17:35.114Z,97679.41
2023-03-10T14:22:41.208Z,97686.53
2023-03-10T14:27:46.397Z,97679.59
2023-03-10T14:32:48.129Z,97683.25
2023-03-10T14:37:50.866Z,97701.69
2023-03-10T14:42:54.447Z,97700.63
2023-03-10T14:47:58.729Z,97707.38
2023-03-10T14:53:00.176Z,97701.94
2023-03-10T14:58:04.440Z,97711.22
2023-03-10T15:03:06.440Z,97725.47
2023-03-10T15:08:11.034Z,97706.09
2023-03-10T15:13:13.593Z,97714.81
2023-03-10T15:18:18.589Z,97717.91
2023-03-10T15:23:22.226Z,97713.81
2023-03-10T15:28:23.917Z,97740.13
2023-03-10T15:33:25.359Z,97731.78
2023-03-10T15:38:26.774Z,97734.97
2023-03-10T15:43:28.112Z,97746.84
2023-03-10T15:48:29.609Z,97755.00
2023-03-10T15:53:31.065Z,97774.25
2023-03-10T15:58:32.685Z,97765.50
2023-03-10T16:03:38.071Z,97772.75
2023-03-10T16:08:40.007Z,97788.00
2023-03-10T16:56:45.412Z,97869.22
2023-03-10T17:01:47.476Z,97870.28
2023-03-10T17:06:49.047Z,97892.81
2023-03-10T17:11:55.074Z,97895.03
2023-03-10T17:16:57.095Z,97914.28
2023-03-10T17:21:59.195Z,97930.28
2023-03-10T17:27:00.788Z,97946.72
2023-03-10T17:32:02.263Z,97950.25
2023-03-10T17:37:03.704Z,97977.44
2023-03-10T17:42:05.291Z,97972.38
2023-03-10T17:47:06.700Z,97987.53
2023-03-10T17:52:08.358Z,97993.91
2023-03-10T17:57:09.970Z,98000.69
2023-03-10T18:02:12.394Z,97980.16
2023-03-10T18:07:14.169Z,97994.72
2023-03-10T18:12:16.174Z,98010.94
2023-03-10T18:17:17.519Z,98018.78
2023-03-10T18:22:18.914Z,98043.28
2023-03-10T18:27:20.246Z,98069.16
2023-03-10T18:32:22.257Z,98088.88
2023-03-10T18:37:24.305Z,98132.47
2023-03-10T18:42:26.796Z,98164.31
2023-03-10T18:47:28.133Z,98230.94
2023-03-10T18:52:32.898Z,98283.69
2023-03-10T18:57:34.280Z,98290.44
2023-03-10T19:02:35.716Z,98302.50
2023-03-10T19:07:37.306Z,98342.47
2023-03-10T19:12:39.282Z,98354.97
2023-03-10T19:57:17.476Z,98512.34
2023-03-10T20:02:19.173Z,98547.38
2023-03-10T20:07:20.596Z,98593.03
2023-03-10T20:12:22.329Z,98630.41
2023-03-10T20:17:23.681Z,98634.75
2023-03-10T20:22:25.086Z,98663.66
2023-03-10T20:27:26.987Z,98709.19
2023-03-10T20:32:28.397Z,98726.41
2023-03-10T20:37:29.837Z,98756.75
2023-03-10T21:14:25.456Z,98876.91
2023-03-10T21:19:27.555Z,98899.72
2023-03-10T21:24:29.009Z,98913.34
2023-03-10T21:29:31.065Z,98927.84
2023-03-10T21:34:32.406Z,98934.31
2023-03-10T21:39:33.767Z,98967.38
2023-03-10T21:44:35.103Z,98963.22
2023-03-10T21:49:37.082Z,98979.41
2023-03-10T21:54:38.514Z,98967.44
2023-03-10T21:59:39.900Z,99003.34
2023-03-10T22:04:41.277Z,99000.06
2023-03-10T22:09:42.671Z,99020.84
2023-03-10T22:14:44.041Z,99022.84
2023-03-10T22:19:49.008Z,99024.50
2023-03-10T22:24:50.673Z,99039.63
2023-03-10T22:29:52.067Z,99057.59
2023-03-10T22:34:53.499Z,99071.75
2023-03-10T22:39:55.881Z,99075.75
2023-03-10T22:44:57.336Z,99100.69
2023-03-10T22:49:58.656Z,99117.16
2023-03-10T22:55:00.197Z,99132.63
2023-03-10T23:00:01.532Z,99128.63
2023-03-10T23:05:03.020Z,99139.94
2023-03-10T23:10:07.362Z,99140.94
2023-03-10T23:15:15.421Z,99150.56
2023-03-10T23:20:27.478Z,99146.28
2023-03-10T23:25:33.011Z,99158.88
2023-03-10T23:30:36.413Z,99166.72
2023-03-10T23:35:37.741Z,99169.88
2023-03-10T23:40:39.118Z,99166.34
2023-03-10T23:45:41.549Z,99169.53
2023-03-10T23:50:44.768Z,99156.91
2023-03-10T23:55:47.299Z,99159.25
